Flight Track Log - Related Links

Times and Time Zones

All times are in EDT time to prevent confusion due to time zone crossing. See the N244A flight status page for this flight to view local times or setup timezone preferences in your user account.

Time Position Orientation Groundspeed Altitude Reporting Facility
EDT Latitude Longitude Course Direction KTS MPH feet Rate Location/Type
Mon 07:20:40 PM 26.3033 -81.8156 47° Northeast 300 345 8,000  Level Miami Center
Mon 07:21:40 PM 26.3886 -81.8261 354° North 293 337 11,100 2,750 Climbing Miami Center
Mon 07:22:40 PM 26.4822 -81.8300 358° North 313 360 13,500 1,400 Climbing Miami Center
Mon 07:23:40 PM 26.5806 -81.8297 360° North 333 383 13,900 250 Climbing Miami Center
Mon 07:24:40 PM 26.6817 -81.8036 13° North 352 405 14,000 50 Climbing Miami Center
Mon 07:25:00 PM 26.6207 -81.6552 47° Northeast  Level FlightAware Approximate
Mon 07:25:40 PM 26.7797 -81.7381 31° Northeast 363 418 14,000  Level Miami Center
Mon 07:26:40 PM 26.8733 -81.6908 24° Northeast 369 425 14,000  Level Miami Center
Mon 07:27:40 PM 26.9736 -81.6856 North 359 413 14,000 -50 Level Miami Center
Mon 07:28:40 PM 27.0650 -81.7011 351° North 359 413 13,900 -400 Descending Miami Center
Mon 07:29:40 PM 27.1775 -81.7058 358° North 381 438 13,200 -450 Descending Miami Center
Mon 07:30:40 PM 27.2942 -81.7131 357° North 401 461 13,000 -150 Descending Miami Center
Mon 07:31:40 PM 27.4089 -81.7156 359° North 406 467 12,900  Descending Miami Center
Mon 07:32:40 PM 27.5336 -81.7256 356° North 406 467 13,000 50 Climbing Miami Center
Mon 07:33:40 PM 27.6358 -81.7322 357° North 400 460 13,000 31 Level Miami Center
Mon 07:35:51 PM 27.8833 -81.7167 North 412 474 13,100 -195 Climbing Orlando TRACON
Mon 07:36:45 PM 27.9500 -81.6333 48° Northeast 398 458 12,400 -1,150 Descending Orlando TRACON
Mon 07:37:51 PM 28.0167 -81.5500 48° Northeast 318 366 10,800 -2,050 Descending Orlando TRACON
Mon 07:38:45 PM 28.0833 -81.4833 41° Northeast 321 369 8,300 -2,421 Descending Orlando TRACON
Mon 07:39:45 PM 28.1333 -81.4000 56° Northeast 302 348 6,200 -1,150 Descending Orlando TRACON
Mon 07:40:45 PM 28.1167 -81.3167 103° East 274 315 6,000 -50 Descending Orlando TRACON
Mon 07:41:45 PM 28.1167 -81.2167 90° East 294 338 6,100 48 Climbing Orlando TRACON
Mon 07:42:51 PM 28.1167 -81.1167 90° East 307 353 6,100  Level Orlando TRACON
Mon 07:43:45 PM 28.1167 -81.0333 90° East 308 354 6,100 -550 Level Orlando TRACON
Mon 07:44:51 PM 28.1000 -80.9333 101° East 273 314 5,000 -1,190 Descending Orlando TRACON
Mon 07:45:51 PM 28.1000 -80.8500 90° East 273 314 3,600 -1,357 Descending Orlando TRACON
Mon 07:46:46 PM 28.1000 -80.7667 90° East 268 308 2,400 -1,513 Descending Orlando TRACON
Mon 07:47:46 PM 28.1000 -80.7000 90° East 199 229 700 -1,700 Descending Orlando TRACON
Mon 07:49:00 PM 28.1028 -80.6453 130° Southeast  Level Estimated

Login

Don't have an account? Register now (free) for customized features, flight alerts, and more!